Time;durP1;ratioP1;P1;durP2;ratioP2;P2;SDS_P1;SDS_P2;PMS_P1;PMS_P2;Temp;Humidity;BMP_temperature;BMP_pressure;BME280_temperature;BME280_humidity;BME280_pressure;Samples;Min_cycle;Max_cycle;Signal;HPM_P1;HPM_P2
2023/03/21 00:01:55;;;;;;;;;;;;;;;8.65;78.88;96681.31;5076165;28;19944;-69
2023/03/21 00:04:25;;;;;;;;;;;;;;;8.65;78.75;96681.31;5075470;28;19961;-69
2023/03/21 00:06:51;;;;;;;;;;;;;;;8.65;78.73;96686.56;5075429;28;19949;-69
2023/03/21 00:09:17;;;;;;;;;;;;;;;8.64;79.40;96684.94;5075719;28;19938;-69
2023/03/21 00:11:44;;;;;;;;;;;;;;;8.63;80.85;96690.34;5075287;28;19949;-70
2023/03/21 00:14:13;;;;;;;;;;;;;;;8.60;80.46;96683.72;5075377;28;19945;-69
2023/03/21 00:16:39;;;;;;;;;;;;;;;8.60;80.54;96682.91;5075257;28;20343;-69
2023/03/21 00:19:05;;;;;;;;;;;;;;;8.58;80.77;96685.72;5075568;28;19942;-69
2023/03/21 00:21:32;;;;;;;;;;;;;;;8.58;80.36;96675.28;5075441;28;19944;-68
2023/03/21 00:23:59;;;;;;;;;;;;;;;8.58;80.48;96672.66;5075064;28;19955;-67
2023/03/21 00:26:25;;;;;;;;;;;;;;;8.60;80.65;96675.06;5075117;28;19944;-67
2023/03/21 00:28:51;;;;;;;;;;;;;;;8.58;80.72;96670.03;5074858;28;19971;-68
2023/03/21 00:31:17;;;;;;;;;;;;;;;8.58;80.74;96664.81;5075838;28;20273;-68
2023/03/21 00:33:43;;;;;;;;;;;;;;;8.58;80.84;96662.19;5075144;28;20399;-67
2023/03/21 00:36:10;;;;;;;;;;;;;;;8.59;80.68;96658.59;5075659;28;19960;-68
2023/03/21 00:38:36;;;;;;;;;;;;;;;8.58;80.80;96664.81;5074892;28;19947;-69
2023/03/21 00:41:03;;;;;;;;;;;;;;;8.58;81.28;96662.19;5074816;28;19950;-80
2023/03/21 00:43:29;;;;;;;;;;;;;;;8.59;81.50;96655.97;5074741;28;19958;-81
2023/03/21 00:45:57;;;;;;;;;;;;;;;8.59;81.41;96650.75;5075241;28;19981;-78
2023/03/21 00:48:23;;;;;;;;;;;;;;;8.59;81.21;96652.53;5074662;28;19952;-81
2023/03/21 00:50:51;;;;;;;;;;;;;;;8.58;81.34;96651.75;5074624;28;19943;-80
2023/03/21 00:53:17;;;;;;;;;;;;;;;8.58;81.31;96650.94;5075433;28;20393;-81
2023/03/21 00:55:43;;;;;;;;;;;;;;;8.56;81.32;96645.13;5075041;28;19938;-83
2023/03/21 00:58:09;;;;;;;;;;;;;;;8.56;81.65;96638.06;5074565;28;19945;-83
2023/03/21 01:00:38;;;;;;;;;;;;;;;8.55;81.35;96641.69;5075047;28;20025;-68
2023/03/21 01:03:06;;;;;;;;;;;;;;;8.56;81.84;96638.06;5074291;28;19942;-68
2023/03/21 01:06:04;;;;;;;;;;;;;;;8.56;81.95;96639.88;5074366;28;20406;-67
2023/03/21 01:08:31;;;;;;;;;;;;;;;8.54;81.68;96635.66;5074912;28;19940;-68
2023/03/21 01:11:00;;;;;;;;;;;;;;;8.55;81.94;96628.63;5074784;28;19940;-68
2023/03/21 01:13:26;;;;;;;;;;;;;;;8.55;81.76;96628.63;5074258;28;19951;-67
2023/03/21 01:15:54;;;;;;;;;;;;;;;8.55;82.08;96633.84;5074982;28;19936;-79
2023/03/21 01:18:22;;;;;;;;;;;;;;;8.57;82.13;96631.03;5074147;28;20421;-68
2023/03/21 01:20:48;;;;;;;;;;;;;;;8.56;81.99;96630.22;5074107;28;19952;-67
2023/03/21 01:23:14;;;;;;;;;;;;;;;8.57;81.81;96636.25;5073022;28;19959;-68
2023/03/21 01:25:40;;;;;;;;;;;;;;;8.56;81.81;96632.03;5074834;28;19939;-68
2023/03/21 01:28:07;;;;;;;;;;;;;;;8.53;81.60;96633.25;5072972;28;20349;-68
2023/03/21 01:30:33;;;;;;;;;;;;;;;8.52;82.32;96634.25;5072820;28;20424;-68
2023/03/21 01:32:59;;;;;;;;;;;;;;;8.50;82.43;96639.69;5073976;28;19945;-67
2023/03/21 01:35:25;;;;;;;;;;;;;;;8.48;82.60;96633.84;5073345;28;19984;-68
2023/03/21 01:37:50;;;;;;;;;;;;;;;8.47;82.52;96629.63;5073690;28;19961;-67
2023/03/21 01:40:18;;;;;;;;;;;;;;;8.43;82.09;96628.41;5074407;28;19940;-67
2023/03/21 01:42:44;;;;;;;;;;;;;;;8.38;82.02;96635.19;5073712;28;20318;-67
2023/03/21 01:45:29;;;;;;;;;;;;;;;8.33;82.13;96628.75;5073991;28;19959;-68
2023/03/21 01:47:54;;;;;;;;;;;;;;;8.31;82.91;96629.97;5073793;28;19943;-67
2023/03/21 01:50:21;;;;;;;;;;;;;;;8.29;83.09;96631.97;5074263;28;19981;-68
2023/03/21 01:52:48;;;;;;;;;;;;;;;8.26;82.83;96622.72;5073769;28;19944;-67
2023/03/21 01:55:16;;;;;;;;;;;;;;;8.25;83.46;96628.16;5073984;28;20322;-69
2023/03/21 01:57:48;;;;;;;;;;;;;;;8.27;83.07;96618.28;5073588;28;19947;-69
2023/03/21 02:00:14;;;;;;;;;;;;;;;8.28;83.14;96614.69;5074233;28;19947;-70
2023/03/21 02:02:54;;;;;;;;;;;;;;;8.29;83.26;96617.13;5073588;28;19941;-69
2023/03/21 02:05:29;;;;;;;;;;;;;;;8.30;83.34;96621.31;5073840;28;20320;-69
2023/03/21 02:07:55;;;;;;;;;;;;;;;8.29;83.44;96619.72;5073529;28;19939;-69
2023/03/21 02:10:21;;;;;;;;;;;;;;;8.25;83.40;96620.31;5073562;28;19947;-88
2023/03/21 02:12:47;;;;;;;;;;;;;;;8.21;83.82;96622.53;5073575;28;19942;-67
2023/03/21 02:15:13;;;;;;;;;;;;;;;8.21;83.86;96613.88;5073468;28;19965;-68
2023/03/21 02:17:54;;;;;;;;;;;;;;;8.21;83.60;96614.69;5073469;28;20402;-67
2023/03/21 02:20:28;;;;;;;;;;;;;;;8.21;83.36;96609.47;5073995;28;19951;-68
2023/03/21 02:22:57;;;;;;;;;;;;;;;8.21;83.32;96611.25;5073698;28;19944;-68
2023/03/21 02:25:29;;;;;;;;;;;;;;;8.20;83.59;96612.28;5072156;28;20426;-67
2023/03/21 02:27:58;;;;;;;;;;;;;;;8.19;83.44;96608.84;5073417;28;20361;-68
2023/03/21 02:30:35;;;;;;;;;;;;;;;8.16;83.48;96606.63;5073329;28;19942;-83
2023/03/21 02:33:15;;;;;;;;;;;;;;;8.12;83.87;96602.81;5074191;28;19934;-88
2023/03/21 02:35:45;;;;;;;;;;;;;;;8.10;84.16;96608.22;5076678;28;19944;-85
2023/03/21 02:38:16;;;;;;;;;;;;;;;8.08;83.93;96602.41;5077418;28;19944;-89
2023/03/21 02:40:56;;;;;;;;;;;;;;;8.10;83.69;96604.81;5077467;28;19944;-88
2023/03/21 02:43:36;;;;;;;;;;;;;;;8.09;84.10;96598.78;5077952;28;19945;-89
2023/03/21 02:46:07;;;;;;;;;;;;;;;8.08;84.69;96610.25;5079290;28;19949;-67
2023/03/21 02:48:36;;;;;;;;;;;;;;;8.08;84.67;96612.88;5077088;28;19949;-68
2023/03/21 02:51:04;;;;;;;;;;;;;;;8.07;84.71;96608.63;5077105;28;20298;-67
2023/03/21 02:53:32;;;;;;;;;;;;;;;8.07;84.65;96606.00;5075729;28;19944;-68
2023/03/21 02:55:59;;;;;;;;;;;;;;;8.06;84.12;96609.63;5076778;28;19943;-67
2023/03/21 02:58:26;;;;;;;;;;;;;;;8.06;84.13;96606.19;5077328;28;19946;-67
2023/03/21 03:00:55;;;;;;;;;;;;;;;8.06;84.25;96604.41;5077049;28;19943;-67
2023/03/21 03:03:22;;;;;;;;;;;;;;;8.06;84.09;96601.81;5076908;28;19940;-67
2023/03/21 03:05:49;;;;;;;;;;;;;;;8.05;84.63;96596.78;5077198;28;19945;-85
2023/03/21 03:08:15;;;;;;;;;;;;;;;8.03;84.41;96596.97;5075498;28;19941;-83
2023/03/21 03:10:41;;;;;;;;;;;;;;;8.03;84.36;96594.34;5076841;28;19988;-89
2023/03/21 03:13:17;;;;;;;;;;;;;;;8.00;84.79;96597.38;5077191;28;19938;-83
2023/03/21 03:15:50;;;;;;;;;;;;;;;7.98;84.50;96596.75;5076460;28;19945;-87
2023/03/21 03:18:34;;;;;;;;;;;;;;;7.97;84.72;96602.19;5076884;28;19943;-88
2023/03/21 03:21:16;;;;;;;;;;;;;;;7.93;84.61;96589.50;5076391;28;19938;-85
2023/03/21 03:24:02;;;;;;;;;;;;;;;7.93;84.63;96586.88;5076610;28;19962;-68
2023/03/21 03:26:30;;;;;;;;;;;;;;;7.92;84.92;96587.91;5076212;28;19942;-68
2023/03/21 03:29:00;;;;;;;;;;;;;;;7.90;84.86;96589.09;5076061;28;19970;-69
2023/03/21 03:31:30;;;;;;;;;;;;;;;7.87;84.91;96581.66;5077051;28;19949;-68
2023/03/21 03:33:59;;;;;;;;;;;;;;;7.86;84.76;96585.28;5076890;28;20308;-69
2023/03/21 03:36:28;;;;;;;;;;;;;;;7.82;84.64;96584.06;5076059;28;19954;-68
2023/03/21 03:38:56;;;;;;;;;;;;;;;7.80;84.59;96583.44;5076022;28;19943;-69
2023/03/21 03:41:24;;;;;;;;;;;;;;;7.77;84.87;96583.81;5076620;28;19943;-87
2023/03/21 03:43:52;;;;;;;;;;;;;;;7.72;85.05;96581.81;5074687;28;19970;-68
2023/03/21 03:46:25;;;;;;;;;;;;;;;7.69;85.32;96587.44;5075410;28;19961;-84
2023/03/21 03:48:53;;;;;;;;;;;;;;;7.66;85.39;96582.59;5076668;28;20289;-83
2023/03/21 03:51:42;;;;;;;;;;;;;;;7.61;85.82;96583.19;5075835;28;19943;-82
2023/03/21 03:54:11;;;;;;;;;;;;;;;7.57;85.70;96578.56;5075358;28;19948;-83
2023/03/21 03:56:38;;;;;;;;;;;;;;;7.53;85.50;96572.91;5076279;28;19949;-83
2023/03/21 03:59:06;;;;;;;;;;;;;;;7.51;85.81;96582.75;5075599;28;19948;-83
2023/03/21 04:01:32;;;;;;;;;;;;;;;7.46;86.58;96583.34;5075712;28;19951;-68
2023/03/21 04:03:59;;;;;;;;;;;;;;;7.42;86.45;96574.28;5075490;28;20328;-83
2023/03/21 04:06:26;;;;;;;;;;;;;;;7.40;86.08;96578.88;5075569;28;19941;-84
2023/03/21 04:08:52;;;;;;;;;;;;;;;7.35;86.23;96578.69;5076321;28;19946;-84
2023/03/21 04:11:18;;;;;;;;;;;;;;;7.31;86.75;96580.84;5075449;28;19937;-83
2023/03/21 04:13:44;;;;;;;;;;;;;;;7.25;87.01;96576.41;5075356;28;20045;-83
2023/03/21 04:16:11;;;;;;;;;;;;;;;7.23;86.94;96575.00;5075301;28;20401;-83
2023/03/21 04:18:38;;;;;;;;;;;;;;;7.19;86.62;96571.97;5075301;28;19940;-68
2023/03/21 04:21:11;;;;;;;;;;;;;;;7.15;86.24;96572.56;5075207;28;20422;-68
2023/03/21 04:23:37;;;;;;;;;;;;;;;7.10;86.45;96565.31;5075958;28;19938;-68
2023/03/21 04:26:04;;;;;;;;;;;;;;;7.05;86.32;96557.25;5075131;28;19953;-68
2023/03/21 04:28:31;;;;;;;;;;;;;;;7.03;86.39;96565.25;5075025;28;20337;-68
2023/03/21 04:30:56;;;;;;;;;;;;;;;6.98;86.20;96565.03;5075044;28;19942;-68
2023/03/21 04:33:24;;;;;;;;;;;;;;;6.95;86.61;96564.59;5075846;28;20035;-68
2023/03/21 04:35:54;;;;;;;;;;;;;;;6.91;86.56;96567.59;5074838;28;19959;-68
2023/03/21 04:38:21;;;;;;;;;;;;;;;6.88;86.81;96567.16;5075492;28;19939;-69
2023/03/21 04:40:47;;;;;;;;;;;;;;;6.85;86.76;96572.78;5074794;28;19941;-68
2023/03/21 04:43:13;;;;;;;;;;;;;;;6.82;87.06;96568.72;5075404;28;19945;-67
2023/03/21 04:45:39;;;;;;;;;;;;;;;6.78;86.60;96558.88;5074678;28;19961;-67
2023/03/21 04:48:05;;;;;;;;;;;;;;;6.73;86.62;96561.28;5074698;28;19938;-67
2023/03/21 04:50:31;;;;;;;;;;;;;;;6.67;86.48;96560.22;5075529;28;19941;-68
2023/03/21 04:52:57;;;;;;;;;;;;;;;6.64;86.70;96563.22;5074607;28;19946;-68
2023/03/21 04:55:25;;;;;;;;;;;;;;;6.60;87.18;96565.38;5074521;28;20033;-67
2023/03/21 04:57:51;;;;;;;;;;;;;;;6.59;86.75;96562.97;5073039;28;20413;-67
2023/03/21 05:00:17;;;;;;;;;;;;;;;6.59;87.57;96571.59;5073418;28;20403;-84
2023/03/21 05:02:43;;;;;;;;;;;;;;;6.59;88.30;96563.75;5074453;28;19947;-85
2023/03/21 05:05:10;;;;;;;;;;;;;;;6.60;88.26;96567.19;5074353;28;19958;-84
2023/03/21 05:07:37;;;;;;;;;;;;;;;6.62;88.93;96573.03;5075267;28;19938;-87
2023/03/21 05:10:04;;;;;;;;;;;;;;;6.62;88.87;96573.81;5074547;28;19967;-85
2023/03/21 05:12:30;;;;;;;;;;;;;;;6.64;88.84;96576.25;5074854;28;19940;-83
2023/03/21 05:14:56;;;;;;;;;;;;;;;6.65;88.90;96578.66;5074216;28;20355;-68
2023/03/21 05:17:23;;;;;;;;;;;;;;;6.67;88.67;96573.25;5075134;28;19945;-87
2023/03/21 05:19:51;;;;;;;;;;;;;;;6.68;89.03;96573.06;5073489;28;19948;-87
2023/03/21 05:22:18;;;;;;;;;;;;;;;6.68;89.25;96573.06;5074179;28;19947;-87
2023/03/21 05:24:48;;;;;;;;;;;;;;;6.68;89.62;96578.28;5074859;28;19965;-87
2023/03/21 05:27:32;;;;;;;;;;;;;;;6.68;89.30;96569.66;5074336;28;20330;-87
2023/03/21 05:30:12;;;;;;;;;;;;;;;6.69;88.89;96571.25;5074807;28;19954;-88
2023/03/21 05:32:38;;;;;;;;;;;;;;;6.69;89.50;96574.66;5074729;28;19947;-69
2023/03/21 05:35:04;;;;;;;;;;;;;;;6.68;89.11;96572.28;5074025;28;19940;-67
2023/03/21 05:37:30;;;;;;;;;;;;;;;6.67;88.78;96576.66;5072753;28;19965;-67
2023/03/21 05:39:56;;;;;;;;;;;;;;;6.67;88.88;96568.84;5073841;28;19949;-67
2023/03/21 05:42:22;;;;;;;;;;;;;;;6.67;88.89;96566.22;5074098;28;19946;-67
2023/03/21 05:44:48;;;;;;;;;;;;;;;6.67;88.78;96573.25;5073676;28;20330;-68
2023/03/21 05:47:14;;;;;;;;;;;;;;;6.67;88.73;96560.22;5073827;28;19944;-68
2023/03/21 05:49:41;;;;;;;;;;;;;;;6.67;88.99;96571.44;5074548;28;20293;-68
2023/03/21 05:52:07;;;;;;;;;;;;;;;6.67;89.38;96573.25;5074257;28;19949;-80
2023/03/21 05:54:33;;;;;;;;;;;;;;;6.67;89.74;96573.25;5073771;28;20309;-68
2023/03/21 05:56:59;;;;;;;;;;;;;;;6.68;89.25;96575.69;5073567;28;19986;-67
2023/03/21 05:59:24;;;;;;;;;;;;;;;6.73;89.00;96584.72;5073691;28;19936;-67
2023/03/21 06:01:50;;;;;;;;;;;;;;;6.77;88.64;96575.53;5074151;28;19939;-68
2023/03/21 06:04:16;;;;;;;;;;;;;;;6.92;88.51;96573.63;5074031;28;20444;-68
2023/03/21 06:06:42;;;;;;;;;;;;;;;7.09;87.78;96563.69;5073622;28;19994;-66
2023/03/21 06:09:08;;;;;;;;;;;;;;;7.32;87.57;96571.22;5074418;28;19942;-67
2023/03/21 06:11:35;;;;;;;;;;;;;;;7.41;86.03;96558.81;5078290;28;20035;-67
2023/03/21 06:14:01;;;;;;;;;;;;;;;7.42;86.21;96565.66;5078484;28;19944;-67
2023/03/21 06:16:30;;;;;;;;;;;;;;;7.43;85.77;96565.47;5078171;28;19968;-67
2023/03/21 06:18:55;;;;;;;;;;;;;;;7.46;85.35;96565.06;5077548;28;19944;-67
2023/03/21 06:21:21;;;;;;;;;;;;;;;7.57;85.46;96555.88;5078378;28;19981;-67
2023/03/21 06:23:50;;;;;;;;;;;;;;;7.83;84.70;96551.72;5077481;28;20398;-67
2023/03/21 06:26:18;;;;;;;;;;;;;;;8.10;83.37;96544.72;5077633;28;19967;-67
2023/03/21 06:28:44;;;;;;;;;;;;;;;8.58;82.45;96528.88;5077374;28;20318;-70
2023/03/21 06:31:10;;;;;;;;;;;;;;;9.21;81.06;96517.06;5078157;28;19948;-69
2023/03/21 06:33:36;;;;;;;;;;;;;;;9.80;78.27;96502.88;5077338;28;19938;-68
2023/03/21 06:36:02;;;;;;;;;;;;;;;10.25;76.58;96489.66;5077795;28;19961;-68
2023/03/21 06:38:27;;;;;;;;;;;;;;;10.50;74.52;96476.56;5077220;28;19942;-68
2023/03/21 06:40:53;;;;;;;;;;;;;;;10.84;73.29;96474.41;5077136;28;19945;-68
2023/03/21 06:43:19;;;;;;;;;;;;;;;11.08;71.96;96472.72;5077166;28;19940;-68
2023/03/21 06:45:45;;;;;;;;;;;;;;;11.33;71.50;96477.88;5077771;28;19955;-68
2023/03/21 06:48:11;;;;;;;;;;;;;;;11.55;70.56;96475.56;5077113;28;19974;-80
2023/03/21 06:50:37;;;;;;;;;;;;;;;11.55;69.69;96464.28;5077527;28;20343;-69
2023/03/21 06:53:02;;;;;;;;;;;;;;;11.54;68.87;96466.06;5077059;28;19943;-69
2023/03/21 06:55:28;;;;;;;;;;;;;;;11.46;69.58;96468.22;5076823;28;19944;-68
2023/03/21 06:57:55;;;;;;;;;;;;;;;11.56;70.33;96469.28;5076787;28;19979;-69
2023/03/21 07:00:22;;;;;;;;;;;;;;;11.74;67.57;96460.56;5077261;28;19938;-69
2023/03/21 07:02:48;;;;;;;;;;;;;;;11.79;66.96;96459.88;5076735;28;20323;-67
2023/03/21 07:05:15;;;;;;;;;;;;;;;11.74;69.29;96476.31;5076580;28;19967;-69
2023/03/21 07:07:41;;;;;;;;;;;;;;;11.94;69.58;96483.91;5077259;28;19945;-67
2023/03/21 07:10:08;;;;;;;;;;;;;;;12.17;68.39;96469.22;5076692;28;19937;-67
2023/03/21 07:12:34;;;;;;;;;;;;;;;12.38;68.33;96478.38;5076459;28;19941;-67
2023/03/21 07:15:05;;;;;;;;;;;;;;;12.55;67.97;96473.25;5077341;28;19936;-68
2023/03/21 07:17:31;;;;;;;;;;;;;;;12.55;66.43;96468.78;5077339;28;19947;-67
2023/03/21 07:19:57;;;;;;;;;;;;;;;12.57;66.96;96479.06;5076090;28;19948;-67
2023/03/21 07:22:23;;;;;;;;;;;;;;;12.61;64.96;96474.97;5076605;28;20365;-84
2023/03/21 07:24:49;;;;;;;;;;;;;;;12.54;66.62;96485.59;5076879;28;20048;-69
2023/03/21 07:27:16;;;;;;;;;;;;;;;12.61;65.15;96474.97;5075863;28;20058;-67
2023/03/21 07:29:42;;;;;;;;;;;;;;;12.69;66.48;96485.13;5076207;28;19945;-68
2023/03/21 07:32:09;;;;;;;;;;;;;;;12.82;65.27;96484.09;5076755;28;19950;-67
2023/03/21 07:34:35;;;;;;;;;;;;;;;12.88;63.77;96469.22;5076276;28;20310;-68
2023/03/21 07:37:01;;;;;;;;;;;;;;;12.86;64.85;96476.53;5076089;28;19957;-68
2023/03/21 07:39:26;;;;;;;;;;;;;;;12.96;65.27;96471.50;5076120;28;19940;-68
2023/03/21 07:41:55;;;;;;;;;;;;;;;12.98;64.28;96472.84;5076664;28;20045;-68
2023/03/21 07:44:21;;;;;;;;;;;;;;;13.11;66.24;96490.22;5076307;28;19945;-69
2023/03/21 07:46:47;;;;;;;;;;;;;;;13.17;64.71;96478.75;5075466;28;19948;-70
2023/03/21 07:49:13;;;;;;;;;;;;;;;13.48;62.48;96466.22;5076770;28;19943;-69
2023/03/21 07:51:39;;;;;;;;;;;;;;;13.69;62.71;96474.47;5076759;28;19987;-69
2023/03/21 07:54:05;;;;;;;;;;;;;;;13.71;60.96;96467.94;5075772;28;20347;-69
2023/03/21 07:56:31;;;;;;;;;;;;;;;13.55;60.98;96474.75;5075835;28;19939;-69
2023/03/21 07:58:58;;;;;;;;;;;;;;;13.46;63.69;96481.47;5075814;28;20002;-87
2023/03/21 08:01:24;;;;;;;;;;;;;;;12.99;61.35;96473.66;5076573;28;20371;-69
2023/03/21 08:03:52;;;;;;;;;;;;;;;12.66;63.99;96490.03;5075698;28;19946;-68
2023/03/21 08:06:21;;;;;;;;;;;;;;;12.46;63.45;96493.03;5076047;28;19981;-68
2023/03/21 08:08:47;;;;;;;;;;;;;;;12.38;64.20;96494.16;5075534;28;20400;-68
2023/03/21 08:11:13;;;;;;;;;;;;;;;12.49;64.80;96498.63;5075488;28;19985;-68
2023/03/21 08:13:39;;;;;;;;;;;;;;;12.49;65.29;96498.63;5076384;28;19942;-68
2023/03/21 08:16:06;;;;;;;;;;;;;;;12.48;66.17;96498.88;5075688;28;19977;-68
2023/03/21 08:18:32;;;;;;;;;;;;;;;12.44;64.33;96487.19;5076082;28;19942;-67
2023/03/21 08:20:58;;;;;;;;;;;;;;;12.56;65.66;96496.69;5076318;28;19992;-90
2023/03/21 08:23:24;;;;;;;;;;;;;;;12.85;64.87;96488.91;5076326;28;19937;-82
2023/03/21 08:25:54;;;;;;;;;;;;;;;13.04;63.24;96476.41;5075203;28;19961;-84
2023/03/21 08:28:20;;;;;;;;;;;;;;;13.15;63.31;96480.03;5074990;28;19969;-85
2023/03/21 08:30:46;;;;;;;;;;;;;;;13.40;64.45;96477.91;5075408;28;19949;-86
2023/03/21 08:33:12;;;;;;;;;;;;;;;13.67;65.47;96472.09;5086983;28;19946;-87
2023/03/21 08:35:39;;;;;;;;;;;;;;;13.72;62.97;96468.75;5091603;28;19951;-70
2023/03/21 08:38:05;;;;;;;;;;;;;;;13.72;60.49;96452.94;5076645;28;19944;-68
2023/03/21 08:40:31;;;;;;;;;;;;;;;13.83;62.66;96462.59;5078255;28;19945;-82
2023/03/21 08:42:57;;;;;;;;;;;;;;;14.02;61.60;96450.78;5076508;28;19946;-83
2023/03/21 08:45:24;;;;;;;;;;;;;;;14.04;60.52;96442.63;5075107;28;19994;-84
2023/03/21 08:47:50;;;;;;;;;;;;;;;13.98;61.38;96449.69;5075206;28;19940;-81
2023/03/21 08:50:17;;;;;;;;;;;;;;;14.04;61.50;96455.81;5075622;28;20001;-82
2023/03/21 08:52:43;;;;;;;;;;;;;;;14.20;60.74;96448.97;5074696;28;20402;-81
2023/03/21 08:55:09;;;;;;;;;;;;;;;14.26;60.49;96449.81;5079205;28;19951;-87
2023/03/21 08:57:35;;;;;;;;;;;;;;;14.33;59.44;96439.91;5078178;28;19950;-69
2023/03/21 09:00:06;;;;;;;;;;;;;;;14.40;59.51;96443.19;5056643;28;19943;-69
2023/03/21 09:02:32;;;;;;;;;;;;;;;14.64;60.40;96446.47;5074021;28;19954;-69
2023/03/21 09:04:58;;;;;;;;;;;;;;;14.75;59.43;96444.75;5057348;28;19966;-69
2023/03/21 09:07:25;;;;;;;;;;;;;;;14.86;59.50;96451.75;5074468;28;19937;-69
2023/03/21 09:09:52;;;;;;;;;;;;;;;15.01;57.71;96448.50;5073035;28;19944;-69
2023/03/21 09:12:18;;;;;;;;;;;;;;;15.13;58.00;96445.75;5073622;28;20382;-69
2023/03/21 09:14:44;;;;;;;;;;;;;;;15.13;56.26;96443.09;5078276;28;19938;-69
2023/03/21 09:17:10;;;;;;;;;;;;;;;14.85;55.87;96439.59;5074213;28;19964;-69
2023/03/21 09:19:37;;;;;;;;;;;;;;;14.79;58.17;96454.56;5074468;28;19938;-69
2023/03/21 09:22:03;;;;;;;;;;;;;;;14.84;57.99;96455.69;5074634;28;19942;-69
2023/03/21 09:24:30;;;;;;;;;;;;;;;15.02;56.43;96455.38;5074633;28;19943;-69
2023/03/21 09:26:56;;;;;;;;;;;;;;;15.13;57.44;96451.81;5073777;28;19958;-68
2023/03/21 09:29:22;;;;;;;;;;;;;;;15.03;56.21;96438.47;5074640;28;20299;-69
2023/03/21 09:31:48;;;;;;;;;;;;;;;14.74;56.97;96448.41;5073978;28;19940;-82
2023/03/21 09:34:14;;;;;;;;;;;;;;;14.56;54.84;96438.94;5074093;28;19990;-69
2023/03/21 09:36:42;;;;;;;;;;;;;;;14.35;56.22;96446.53;5072876;28;20021;-68
2023/03/21 09:39:10;;;;;;;;;;;;;;;14.36;58.09;96466.63;5074394;28;19939;-69
2023/03/21 09:41:45;;;;;;;;;;;;;;;14.52;57.06;96448.38;5074449;28;19940;-69
2023/03/21 09:44:11;;;;;;;;;;;;;;;14.55;57.06;96446.09;5072984;28;19941;-69
2023/03/21 09:46:41;;;;;;;;;;;;;;;14.52;55.46;96440.44;5074051;28;20476;-68
2023/03/21 09:49:14;;;;;;;;;;;;;;;14.51;57.75;96452.03;5074366;28;19943;-69
2023/03/21 09:51:44;;;;;;;;;;;;;;;14.55;57.66;96453.16;5074311;28;19949;-68
2023/03/21 09:54:14;;;;;;;;;;;;;;;14.60;58.85;96455.91;5073828;28;19945;-69
2023/03/21 09:56:41;;;;;;;;;;;;;;;14.65;56.90;96437.47;5072565;28;19940;-68
2023/03/21 09:59:10;;;;;;;;;;;;;;;14.52;57.92;96443.88;5074473;28;19942;-69
2023/03/21 10:01:42;;;;;;;;;;;;;;;14.28;58.54;96447.75;5073715;28;20392;-69
2023/03/21 10:04:11;;;;;;;;;;;;;;;14.30;59.38;96451.75;5072996;28;20415;-69
2023/03/21 10:06:39;;;;;;;;;;;;;;;14.37;58.53;96439.19;5073634;28;20419;-69
2023/03/21 10:09:08;;;;;;;;;;;;;;;14.49;59.10;96438.28;5073628;28;19951;-68
2023/03/21 10:11:41;;;;;;;;;;;;;;;14.51;58.28;96436.19;5074161;28;19947;-67
2023/03/21 10:14:13;;;;;;;;;;;;;;;14.61;59.77;96442.47;5074138;28;19941;-67
2023/03/21 10:16:50;;;;;;;;;;;;;;;14.63;58.76;96438.78;5074165;28;20395;-67
2023/03/21 10:19:17;;;;;;;;;;;;;;;14.55;58.04;96426.75;5073514;28;19965;-67
2023/03/21 10:21:47;;;;;;;;;;;;;;;14.51;58.17;96429.09;5073513;28;19941;-67
2023/03/21 10:24:19;;;;;;;;;;;;;;;14.46;58.66;96421.09;5073431;28;19939;-68
2023/03/21 10:26:45;;;;;;;;;;;;;;;14.47;58.06;96421.88;5073815;28;19961;-69
2023/03/21 10:29:13;;;;;;;;;;;;;;;14.45;57.62;96413.41;5074303;28;20021;-69
2023/03/21 10:31:39;;;;;;;;;;;;;;;14.42;56.18;96404.16;5073387;28;19943;-68
2023/03/21 10:34:12;;;;;;;;;;;;;;;14.46;58.50;96417.66;5073363;28;19948;-69
2023/03/21 10:36:38;;;;;;;;;;;;;;;14.40;56.87;96414.97;5073459;28;19958;-68
2023/03/21 10:39:06;;;;;;;;;;;;;;;14.39;57.81;96421.28;5073325;28;19949;-69
2023/03/21 10:41:32;;;;;;;;;;;;;;;14.51;57.97;96415.91;5073322;28;19952;-68
2023/03/21 10:44:13;;;;;;;;;;;;;;;14.53;57.30;96411.19;5073305;28;20282;-69
2023/03/21 10:46:49;;;;;;;;;;;;;;;14.57;56.77;96412.31;5073565;28;19964;-69
2023/03/21 10:49:15;;;;;;;;;;;;;;;14.55;56.90;96409.13;5073821;28;19957;-68
2023/03/21 10:51:41;;;;;;;;;;;;;;;14.60;56.70;96416.31;5073627;28;20033;-68
2023/03/21 10:54:11;;;;;;;;;;;;;;;14.62;55.57;96408.94;5073187;28;19944;-68
2023/03/21 10:56:39;;;;;;;;;;;;;;;14.64;56.33;96412.16;5076263;28;20381;-68
2023/03/21 10:59:07;;;;;;;;;;;;;;;14.71;58.19;96425.94;5076804;28;19967;-69
2023/03/21 11:01:40;;;;;;;;;;;;;;;14.82;56.13;96409.22;5076827;28;19948;-69
2023/03/21 11:04:08;;;;;;;;;;;;;;;14.87;56.46;96400.56;5076812;28;19943;-69
2023/03/21 11:06:37;;;;;;;;;;;;;;;14.83;54.79;96394.16;5076643;28;19973;-78
2023/03/21 11:09:16;;;;;;;;;;;;;;;14.86;56.32;96398.16;5076662;28;20301;-81
2023/03/21 11:11:51;;;;;;;;;;;;;;;14.92;54.63;96391.88;5076690;28;19951;-78
2023/03/21 11:14:24;;;;;;;;;;;;;;;14.92;53.72;96391.88;5076932;28;19940;-82
2023/03/21 11:16:50;;;;;;;;;;;;;;;14.88;54.44;96401.34;5076692;28;19947;-79
2023/03/21 11:19:18;;;;;;;;;;;;;;;14.70;53.22;96400.63;5076952;28;20398;-79
2023/03/21 11:21:44;;;;;;;;;;;;;;;14.63;50.16;96388.63;5077297;28;20395;-69
2023/03/21 11:24:15;;;;;;;;;;;;;;;14.57;52.25;96400.94;5076566;28;20383;-68
2023/03/21 11:26:43;;;;;;;;;;;;;;;14.54;48.01;96391.66;5077065;28;19961;-69
2023/03/21 11:29:27;;;;;;;;;;;;;;;14.54;50.79;96398.78;5076968;28;19941;-69
2023/03/21 11:31:57;;;;;;;;;;;;;;;14.55;50.77;96398.56;5076556;28;19941;-69
2023/03/21 11:34:43;;;;;;;;;;;;;;;14.56;50.80;96394.88;5076269;28;19936;-69
2023/03/21 11:37:17;;;;;;;;;;;;;;;14.65;49.88;96394.47;5076308;28;19959;-69
2023/03/21 11:39:43;;;;;;;;;;;;;;;14.63;47.70;96384.16;5076806;28;19948;-84
2023/03/21 11:42:25;;;;;;;;;;;;;;;14.66;49.28;96394.22;5077039;28;19944;-83
2023/03/21 11:44:58;;;;;;;;;;;;;;;14.73;50.27;96391.41;5076341;28;19967;-81
2023/03/21 11:47:24;;;;;;;;;;;;;;;14.81;49.60;96389.13;5076498;28;19963;-80
2023/03/21 11:49:50;;;;;;;;;;;;;;;14.80;47.62;96373.53;5076501;28;19950;-81
2023/03/21 11:52:26;;;;;;;;;;;;;;;14.87;49.01;96376.00;5076707;28;19944;-81
2023/03/21 11:55:07;;;;;;;;;;;;;;;14.97;50.18;96376.09;5076955;28;19951;-84
2023/03/21 11:57:36;;;;;;;;;;;;;;;15.10;50.62;96370.44;5076429;28;19945;-82
2023/03/21 12:00:13;;;;;;;;;;;;;;;15.18;48.17;96366.53;5075967;28;19944;-82
2023/03/21 12:02:54;;;;;;;;;;;;;;;15.17;49.55;96368.38;5076448;28;19987;-82
2023/03/21 12:05:40;;;;;;;;;;;;;;;15.13;50.40;96369.94;5076160;28;19944;-83
2023/03/21 12:08:26;;;;;;;;;;;;;;;15.20;49.58;96367.91;5073235;28;19953;-80
2023/03/21 12:10:56;;;;;;;;;;;;;;;15.09;50.79;96358.25;5075463;28;19948;-82
2023/03/21 12:13:28;;;;;;;;;;;;;;;15.04;50.85;96355.59;5075572;28;20007;-82
2023/03/21 12:16:23;;;;;;;;;;;;;;;14.93;49.59;96357.31;5075535;28;19946;-84
2023/03/21 12:19:11;;;;;;;;;;;;;;;15.00;50.88;96359.75;5073726;28;19945;-68
2023/03/21 12:21:49;;;;;;;;;;;;;;;15.10;51.90;96345.84;5075316;28;19935;-68
2023/03/21 12:24:37;;;;;;;;;;;;;;;15.15;51.03;96336.16;5075834;28;20371;-68
2023/03/21 12:27:22;;;;;;;;;;;;;;;15.37;51.64;96340.56;5075432;28;19979;-68
2023/03/21 12:29:47;;;;;;;;;;;;;;;15.61;51.69;96333.13;5075197;28;19944;-68
2023/03/21 12:32:32;;;;;;;;;;;;;;;15.85;49.28;96316.91;5075110;28;19944;-68
2023/03/21 12:35:13;;;;;;;;;;;;;;;15.88;49.65;96322.50;5075329;28;20417;-69
2023/03/21 12:37:58;;;;;;;;;;;;;;;16.03;49.82;96314.66;5075665;28;19956;-68
2023/03/21 12:40:29;;;;;;;;;;;;;;;16.10;46.49;96303.84;5075566;28;19944;-69
2023/03/21 12:42:55;;;;;;;;;;;;;;;16.08;47.19;96305.94;5075447;28;20326;-69
2023/03/21 12:45:23;;;;;;;;;;;;;;;16.17;48.22;96311.56;5074788;28;19945;-69
2023/03/21 12:47:52;;;;;;;;;;;;;;;16.28;47.20;96304.50;5075682;28;19952;-68
2023/03/21 12:50:21;;;;;;;;;;;;;;;16.38;46.44;96302.69;5074816;28;19941;-68
2023/03/21 12:52:50;;;;;;;;;;;;;;;16.59;47.61;96308.84;5074789;28;19948;-69
2023/03/21 12:55:16;;;;;;;;;;;;;;;16.82;47.15;96296.25;5075310;28;20269;-69
2023/03/21 12:57:54;;;;;;;;;;;;;;;17.01;46.42;96297.34;5074678;28;19996;-69
2023/03/21 13:00:27;;;;;;;;;;;;;;;17.03;45.93;96295.22;5075203;28;19949;-69
2023/03/21 13:03:02;;;;;;;;;;;;;;;17.11;46.73;96295.75;5074454;28;19943;-71